Time;durP1;ratioP1;P1;durP2;ratioP2;P2;SDS_P1;SDS_P2;PMS_P1;PMS_P2;Temp;Humidity;BMP_temperature;BMP_pressure;BME280_temperature;BME280_humidity;BME280_pressure;Samples;Min_cycle;Max_cycle;Signal;HPM_P1;HPM_P2
2022/06/17 00:02:13;;;;;;;1125.53;999.90;;;14.50;76.00;;;;;;4998176;28;20352;-67
2022/06/17 00:04:39;;;;;;;1122.50;999.90;;;14.50;76.50;;;;;;4971207;28;20128;-67
2022/06/17 00:07:13;;;;;;;1120.73;999.90;;;14.50;76.60;;;;;;4985366;28;20340;-67
2022/06/17 00:09:40;;;;;;;1074.35;973.20;;;14.50;76.50;;;;;;4993769;28;20061;-67
2022/06/17 00:12:11;;;;;;;1106.23;998.97;;;14.40;76.60;;;;;;4967481;28;20046;-67
2022/06/17 00:15:11;;;;;;;1118.87;999.90;;;14.40;76.30;;;;;;4986252;28;20289;-67
2022/06/17 00:17:23;;;;;;;1080.40;976.57;;;14.40;76.80;;;;;;4985137;28;20311;-67
2022/06/17 00:19:49;;;;;;;1128.60;999.90;;;14.40;76.60;;;;;;4985061;28;21014;-67
2022/06/17 00:22:15;;;;;;;1093.20;985.17;;;14.30;76.80;;;;;;4971533;28;20297;-67
2022/06/17 00:24:41;;;;;;;1085.10;984.90;;;14.30;76.90;;;;;;4964751;28;20311;-67
2022/06/17 00:27:10;;;;;;;1105.83;994.43;;;14.30;77.10;;;;;;4984264;28;20042;-67
2022/06/17 00:29:36;;;;;;;1108.87;998.80;;;14.30;77.20;;;;;;4978661;28;20124;-67
2022/06/17 00:32:02;;;;;;;1095.87;987.57;;;14.30;77.30;;;;;;4955437;28;20325;-67
2022/06/17 00:34:28;;;;;;;1100.87;989.37;;;14.30;77.20;;;;;;4970810;28;20302;-67
2022/06/17 00:36:57;;;;;;;1104.60;997.30;;;14.30;77.20;;;;;;4970088;28;20297;-67
2022/06/17 00:39:29;;;;;;;1088.70;985.07;;;14.30;77.10;;;;;;4966718;28;20035;-67
2022/06/17 00:42:03;;;;;;;1111.23;999.90;;;14.30;77.20;;;;;;4986534;28;20337;-67
2022/06/17 00:44:51;;;;;;;1099.88;993.20;;;14.30;76.80;;;;;;4981582;28;20385;-67
2022/06/17 00:47:38;;;;;;;1092.43;989.23;;;14.30;77.00;;;;;;4968532;28;20050;-67
2022/06/17 00:50:30;;;;;;;1062.37;962.83;;;14.30;77.10;;;;;;5003518;28;20337;-67
2022/06/17 00:53:17;;;;;;;1068.10;964.87;;;14.20;77.10;;;;;;4984650;28;20301;-67
2022/06/17 00:55:44;;;;;;;1088.80;985.23;;;14.20;77.40;;;;;;4966505;28;20301;-67
2022/06/17 00:58:26;;;;;;;1076.77;972.87;;;14.20;77.10;;;;;;4983122;28;20833;-67
2022/06/17 01:00:55;;;;;;;1096.40;990.67;;;14.20;77.20;;;;;;4980649;28;20388;-67
2022/06/17 01:03:25;;;;;;;1101.97;994.30;;;14.10;77.30;;;;;;4984752;28;20317;-68
2022/06/17 01:06:14;;;;;;;1098.57;992.67;;;14.10;77.50;;;;;;4986545;28;20305;-68
2022/06/17 01:11:55;;;;;;;1079.13;976.47;;;14.10;77.60;;;;;;4993354;28;20973;-68
2022/06/17 01:14:21;;;;;;;1076.67;974.07;;;14.00;78.10;;;;;;4986655;28;20300;-68
2022/06/17 01:16:49;;;;;;;1068.80;962.07;;;14.00;77.80;;;;;;4967293;28;20297;-68
2022/06/17 01:19:36;;;;;;;1110.07;997.73;;;14.00;77.70;;;;;;4976828;28;20038;-68
2022/06/17 01:22:27;;;;;;;1086.87;985.03;;;14.00;78.20;;;;;;4982539;28;20312;-68
2022/06/17 01:25:01;;;;;;;1053.40;953.10;;;14.00;78.00;;;;;;4977228;28;20309;-68
2022/06/17 01:27:32;;;;;;;1083.90;984.07;;;13.90;78.10;;;;;;4980622;28;20298;-68
2022/06/17 01:29:58;;;;;;;1056.00;953.77;;;13.90;78.10;;;;;;4981630;28;20298;-68
2022/06/17 01:32:27;;;;;;;1103.80;996.57;;;13.90;78.00;;;;;;4981116;28;20312;-68
2022/06/17 01:34:54;;;;;;;1063.27;960.13;;;13.90;77.90;;;;;;4992111;28;20073;-68
2022/06/17 01:37:20;;;;;;;1088.33;986.37;;;13.90;77.90;;;;;;4962658;28;20309;-68
2022/06/17 01:39:46;;;;;;;1056.60;959.07;;;13.90;77.80;;;;;;4966110;28;20301;-68
2022/06/17 01:42:12;;;;;;;1044.43;947.73;;;13.90;77.40;;;;;;4986602;28;20886;-68
2022/06/17 01:44:40;;;;;;;1020.00;930.70;;;13.90;77.40;;;;;;4969574;28;20435;-68
2022/06/17 01:47:11;;;;;;;1066.60;970.80;;;13.80;77.40;;;;;;4981508;28;20067;-68
2022/06/17 01:49:48;;;;;;;1085.30;988.50;;;13.80;77.40;;;;;;4986202;28;20304;-68
2022/06/17 01:52:36;;;;;;;1017.67;928.50;;;13.80;77.50;;;;;;4970050;28;20298;-68
2022/06/17 01:55:24;;;;;;;1010.27;921.27;;;13.80;77.50;;;;;;5001867;28;20301;-68
2022/06/17 01:58:13;;;;;;;1063.97;968.60;;;13.80;77.40;;;;;;4982200;28;20296;-68
2022/06/17 02:00:41;;;;;;;1025.13;936.90;;;13.70;77.50;;;;;;4987098;28;20828;-68
2022/06/17 02:03:10;;;;;;;1043.10;952.87;;;13.70;77.70;;;;;;4980744;28;20368;-68
2022/06/17 02:05:39;;;;;;;1046.87;955.53;;;13.70;77.70;;;;;;4990692;28;20352;-68
2022/06/17 02:08:05;;;;;;;1022.40;933.17;;;13.70;77.70;;;;;;4976010;28;20384;-68
2022/06/17 02:10:35;;;;;;;1058.83;964.83;;;13.60;77.60;;;;;;4983118;28;20797;-68
2022/06/17 02:13:05;;;;;;;1066.03;972.47;;;13.60;77.60;;;;;;4983425;28;20301;-68
2022/06/17 02:15:31;;;;;;;1047.93;954.23;;;13.60;77.80;;;;;;4981689;28;21068;-68
2022/06/17 02:17:59;;;;;;;1068.33;972.60;;;13.60;77.80;;;;;;4977744;28;20309;-68
2022/06/17 02:20:25;;;;;;;1035.33;940.97;;;13.60;77.90;;;;;;4988259;28;20374;-68
2022/06/17 02:22:52;;;;;;;1054.93;960.90;;;13.60;77.80;;;;;;4936844;28;20305;-68
2022/06/17 02:25:23;;;;;;;1055.30;960.87;;;13.60;77.90;;;;;;4958107;28;20309;-67
2022/06/17 02:27:54;;;;;;;1039.37;948.30;;;13.60;78.10;;;;;;4963835;28;20488;-67
2022/06/17 02:30:20;;;;;;;1061.67;966.50;;;13.60;78.10;;;;;;4976495;28;20297;-67
2022/06/17 02:32:47;;;;;;;1061.33;968.53;;;13.60;78.10;;;;;;4985854;28;20297;-68
2022/06/17 02:35:18;;;;;;;1056.23;962.80;;;13.60;78.00;;;;;;4960964;28;20321;-67
2022/06/17 02:37:44;;;;;;;1056.90;966.73;;;13.70;77.70;;;;;;4978708;28;20372;-67
2022/06/17 02:40:25;;;;;;;1057.80;965.93;;;13.70;77.60;;;;;;4975080;28;20932;-67
2022/06/17 02:42:52;;;;;;;1057.10;963.47;;;13.70;77.50;;;;;;4983880;28;20129;-67
2022/06/17 02:45:23;;;;;;;1012.93;926.83;;;13.70;77.30;;;;;;4978585;28;20301;-67
2022/06/17 02:47:49;;;;;;;997.17;911.70;;;13.80;77.20;;;;;;4981940;28;20336;-67
2022/06/17 02:50:21;;;;;;;1019.53;928.37;;;13.80;77.30;;;;;;4961433;28;20297;-67
2022/06/17 02:52:48;;;;;;;1022.30;935.93;;;13.80;77.20;;;;;;4961661;28;20678;-67
2022/06/17 02:55:39;;;;;;;1043.50;951.67;;;13.90;77.30;;;;;;4966785;28;20297;-67
2022/06/17 02:58:35;;;;;;;1043.07;956.23;;;13.90;77.10;;;;;;4981728;28;20301;-68
2022/06/17 03:01:03;;;;;;;1004.67;921.67;;;14.00;77.20;;;;;;4959598;28;20301;-68
2022/06/17 03:03:30;;;;;;;1050.70;962.40;;;14.00;77.10;;;;;;4953191;28;20362;-67
2022/06/17 03:06:53;;;;;;;1068.33;974.80;;;14.00;76.80;;;;;;4997589;28;20312;-69
2022/06/17 03:09:33;;;;;;;1010.47;926.33;;;14.00;76.90;;;;;;4980290;28;20741;-68
2022/06/17 03:12:02;;;;;;;1029.60;943.23;;;14.00;76.80;;;;;;4966018;28;20309;-68
2022/06/17 03:14:31;;;;;;;1016.27;931.17;;;14.00;76.70;;;;;;4966340;28;20303;-69
2022/06/17 03:17:02;;;;;;;1076.47;984.97;;;14.00;76.70;;;;;;4962577;28;20301;-68
2022/06/17 03:19:30;;;;;;;1028.47;940.60;;;14.00;76.70;;;;;;4951410;28;20360;-67
2022/06/17 03:21:57;;;;;;;1030.00;939.00;;;14.00;76.70;;;;;;4951698;28;20313;-68
2022/06/17 03:24:42;;;;;;;1026.47;939.17;;;14.00;76.70;;;;;;4933716;28;21990;-69
2022/06/17 03:27:19;;;;;;;981.72;898.50;;;14.10;76.70;;;;;;4982934;28;20394;-69
2022/06/17 03:29:49;;;;;;;1014.63;929.00;;;14.10;76.60;;;;;;4966887;28;20058;-69
2022/06/17 03:32:40;;;;;;;1055.93;963.07;;;14.10;76.80;;;;;;4948358;28;20400;-69
2022/06/17 03:35:20;;;;;;;1026.67;936.30;;;14.20;76.60;;;;;;4969347;28;20300;-69
2022/06/17 03:37:55;;;;;;;1039.53;951.67;;;14.20;76.50;;;;;;4965189;28;20301;-69
2022/06/17 03:40:33;;;;;;;1027.67;937.00;;;14.30;76.40;;;;;;4968246;28;20054;-67
2022/06/17 03:43:19;;;;;;;1035.43;947.27;;;14.30;76.40;;;;;;4983185;28;20662;-69
2022/06/17 03:46:01;;;;;;;1037.20;947.60;;;14.40;76.50;;;;;;4985858;28;20833;-68
2022/06/17 03:48:27;;;;;;;1021.67;933.10;;;14.40;76.60;;;;;;4989052;28;20805;-68
2022/06/17 03:50:52;;;;;;;1038.93;948.23;;;14.50;76.40;;;;;;4968267;28;20300;-69
2022/06/17 03:53:29;;;;;;;1052.73;961.53;;;14.50;76.50;;;;;;4997736;28;20142;-69
2022/06/17 03:55:58;;;;;;;1053.37;959.37;;;14.50;76.60;;;;;;4983416;28;20712;-69
2022/06/17 03:58:24;;;;;;;1034.50;940.20;;;14.60;76.40;;;;;;4969546;28;20743;-67
2022/06/17 04:01:01;;;;;;;1078.60;981.87;;;14.70;76.40;;;;;;4982893;28;20364;-66
2022/06/17 04:03:33;;;;;;;1041.53;949.37;;;14.80;76.30;;;;;;4987066;28;20705;-68
2022/06/17 04:06:08;;;;;;;1078.90;980.97;;;14.90;76.40;;;;;;4983618;28;20340;-67
2022/06/17 04:08:49;;;;;;;;;;;14.90;76.10;;;;;;4969623;28;20321;-68
2022/06/17 04:11:14;;;;;;;1010.10;923.67;;;15.00;76.00;;;;;;4999326;28;19918;-67
2022/06/17 04:13:41;;;;;;;1047.93;954.67;;;15.00;75.80;;;;;;4964915;28;20321;-68
2022/06/17 04:16:33;;;;;;;1045.60;953.50;;;15.00;75.90;;;;;;4970554;28;20137;-68
2022/06/17 04:19:22;;;;;;;1025.80;932.87;;;15.10;75.90;;;;;;4984371;28;20802;-68
2022/06/17 04:21:48;;;;;;;1037.00;944.43;;;15.10;75.90;;;;;;4968623;28;20308;-67
2022/06/17 04:24:18;;;;;;;1034.43;944.13;;;15.10;75.90;;;;;;4986935;28;20451;-67
2022/06/17 04:26:47;;;;;;;1070.33;975.23;;;15.10;75.80;;;;;;4965554;28;20296;-68
2022/06/17 04:29:20;;;;;;;1055.37;966.67;;;15.20;75.80;;;;;;4984838;28;20365;-67
2022/06/17 04:32:16;;;;;;;1049.87;951.63;;;15.20;75.60;;;;;;4969064;28;20635;-67
2022/06/17 04:34:42;;;;;;;;;;;15.30;75.70;;;;;;4985906;28;20301;-67
2022/06/17 04:37:19;;;;;;;1026.97;941.90;;;15.30;75.70;;;;;;4980168;28;19918;-67
2022/06/17 04:39:47;;;;;;;1055.43;961.33;;;15.30;75.60;;;;;;4984729;28;20034;-67
2022/06/17 04:42:41;;;;;;;1011.93;922.60;;;15.30;75.60;;;;;;4968589;28;20305;-67
2022/06/17 04:45:21;;;;;;;1073.40;978.57;;;15.40;75.50;;;;;;4980170;28;20301;-67
2022/06/17 04:47:47;;;;;;;1046.67;952.33;;;15.50;75.70;;;;;;4981915;28;20812;-67
2022/06/17 04:50:19;;;;;;;1056.97;961.83;;;15.50;75.80;;;;;;4986531;28;20313;-67
2022/06/17 04:52:48;;;;;;;1087.10;987.40;;;15.50;75.80;;;;;;4978982;28;20298;-67
2022/06/17 04:55:18;;;;;;;1060.07;963.73;;;15.50;75.90;;;;;;4981445;28;20827;-67
2022/06/17 04:57:44;;;;;;;1055.50;958.33;;;15.60;75.70;;;;;;4981873;28;20386;-67
2022/06/17 05:00:22;;;;;;;1068.10;970.23;;;15.60;75.60;;;;;;4968813;28;20321;-68
2022/06/17 05:02:48;;;;;;;1055.90;962.37;;;15.60;75.80;;;;;;4984053;28;20073;-67
2022/06/17 05:05:21;;;;;;;1073.83;977.50;;;15.70;75.70;;;;;;4985767;28;20306;-67
2022/06/17 05:07:51;;;;;;;1066.87;967.73;;;15.70;75.60;;;;;;4984617;28;20088;-67
2022/06/17 05:10:21;;;;;;;1078.67;979.50;;;15.80;75.50;;;;;;4984078;28;20821;-67
2022/06/17 05:12:57;;;;;;;1066.87;969.53;;;15.90;75.40;;;;;;4985514;28;20649;-67
2022/06/17 05:15:24;;;;;;;1067.57;971.33;;;16.00;75.20;;;;;;4968719;28;20293;-68
2022/06/17 05:17:50;;;;;;;1044.30;951.93;;;16.00;74.90;;;;;;4986253;28;20294;-68
2022/06/17 05:20:20;;;;;;;1089.33;988.43;;;16.10;74.90;;;;;;4984757;28;20324;-68
2022/06/17 05:23:01;;;;;;;1066.27;970.10;;;16.20;74.70;;;;;;4986712;28;20101;-68
2022/06/17 05:25:32;;;;;;;1053.00;959.63;;;16.40;74.50;;;;;;4983887;28;20397;-67
2022/06/17 05:27:58;;;;;;;1101.83;998.43;;;16.60;74.40;;;;;;4984394;28;20347;-67
2022/06/17 05:30:25;;;;;;;1074.07;978.57;;;16.80;73.80;;;;;;4983448;28;20761;-67
2022/06/17 05:32:55;;;;;;;1079.47;984.43;;;16.90;72.90;;;;;;4984633;28;20344;-67
2022/06/17 05:35:22;;;;;;;1043.90;953.47;;;17.00;72.70;;;;;;4969817;28;20301;-67
2022/06/17 05:37:49;;;;;;;1065.93;972.73;;;17.10;72.20;;;;;;4970307;28;20876;-67
2022/06/17 05:40:15;;;;;;;1046.13;956.23;;;17.10;71.90;;;;;;4952812;28;20305;-67
2022/06/17 05:42:43;;;;;;;1062.43;971.40;;;17.10;71.80;;;;;;4953788;28;20301;-67
2022/06/17 05:45:17;;;;;;;1100.57;999.90;;;17.10;71.60;;;;;;4981599;28;20305;-67
2022/06/17 05:47:43;;;;;;;1066.10;973.80;;;17.10;71.70;;;;;;4959152;28;20806;-67
2022/06/17 05:50:11;;;;;;;1108.83;999.90;;;17.20;71.90;;;;;;4966399;28;20313;-67
2022/06/17 05:52:58;;;;;;;1048.00;954.70;;;17.20;71.80;;;;;;4980049;28;20425;-67
2022/06/17 05:55:25;;;;;;;1093.30;998.03;;;17.30;71.50;;;;;;4967770;28;20297;-67
2022/06/17 05:57:51;;;;;;;1102.40;999.90;;;17.40;71.40;;;;;;4980689;28;20322;-67
2022/06/17 06:00:18;;;;;;;1076.30;982.63;;;17.50;71.10;;;;;;4983295;28;20831;-67
2022/06/17 06:02:44;;;;;;;1038.23;947.20;;;17.60;70.70;;;;;;4982080;28;20547;-67
2022/06/17 06:05:15;;;;;;;1080.60;987.87;;;17.80;70.70;;;;;;4984250;28;20399;-67
2022/06/17 06:07:40;;;;;;;1071.53;978.53;;;17.90;70.60;;;;;;4981371;28;20074;-68
2022/06/17 06:10:07;;;;;;;1070.73;976.90;;;18.10;70.10;;;;;;4966680;28;20801;-68
2022/06/17 06:15:17;;;;;;;1042.60;953.58;;;18.30;69.60;;;;;;4972031;28;20312;-69
2022/06/17 06:17:47;;;;;;;1030.10;941.40;;;18.40;69.20;;;;;;4969435;28;20479;-69
2022/06/17 06:20:14;;;;;;;1059.27;968.20;;;18.40;68.80;;;;;;4985171;28;20038;-68
2022/06/17 06:22:40;;;;;;;1092.17;996.57;;;18.50;68.30;;;;;;4986164;28;20301;-68
2022/06/17 06:25:06;;;;;;;1070.23;975.60;;;18.50;68.40;;;;;;4984823;28;20640;-68
2022/06/17 06:27:33;;;;;;;1039.97;951.17;;;18.50;68.20;;;;;;4984823;28;20124;-68
2022/06/17 06:29:58;;;;;;;1089.83;997.00;;;18.60;68.20;;;;;;4985083;28;20293;-68
2022/06/17 06:32:24;;;;;;;1078.13;984.87;;;18.70;67.90;;;;;;4969534;28;20336;-68
2022/06/17 06:34:52;;;;;;;1067.93;974.93;;;18.70;68.00;;;;;;4969752;28;20046;-69
2022/06/17 06:37:18;;;;;;;1073.70;982.20;;;18.80;67.90;;;;;;4984007;28;20562;-68
2022/06/17 06:39:44;;;;;;;1066.50;972.63;;;18.90;68.00;;;;;;4985436;28;20332;-68
2022/06/17 06:45:52;;;;;;;1071.10;978.67;;;19.10;66.90;;;;;;4992406;28;20685;-68
2022/06/17 06:48:20;;;;;;;1046.23;956.67;;;19.20;66.70;;;;;;4966614;28;20367;-68
2022/06/17 06:50:46;;;;;;;1074.40;981.53;;;19.30;66.30;;;;;;4974509;28;20310;-68
2022/06/17 06:53:12;;;;;;;1059.93;970.57;;;19.30;66.20;;;;;;4979269;28;20309;-68
2022/06/17 06:59:18;;;;;;;1041.00;953.67;;;19.60;64.70;;;;;;4976588;28;21060;-68
2022/06/17 07:01:51;;;;;;;1086.90;990.87;;;19.80;64.50;;;;;;4970142;28;20293;-68
2022/06/17 07:04:38;;;;;;;1047.97;960.47;;;19.90;63.90;;;;;;4947916;29;20082;-68
2022/06/17 07:07:05;;;;;;;1080.80;985.47;;;20.20;63.40;;;;;;4943972;29;20118;-67
2022/06/17 07:09:30;;;;;;;1070.90;980.50;;;20.30;62.90;;;;;;4944835;29;20075;-68
2022/06/17 07:11:56;;;;;;;1045.90;959.40;;;20.40;62.40;;;;;;4955031;28;20047;-67
2022/06/17 07:14:22;;;;;;;1065.63;974.50;;;20.50;62.30;;;;;;4964652;28;20057;-67
2022/06/17 07:16:48;;;;;;;1037.33;950.07;;;20.60;62.00;;;;;;4952672;28;20464;-67
2022/06/17 07:19:17;;;;;;;1035.77;948.73;;;20.70;61.40;;;;;;4933260;29;20058;-67
2022/06/17 07:21:43;;;;;;;1050.10;960.00;;;20.70;61.40;;;;;;4937460;29;20039;-68
2022/06/17 07:24:08;;;;;;;1062.20;972.57;;;20.70;61.30;;;;;;4939592;29;20125;-68
2022/06/17 07:26:34;;;;;;;1038.27;947.57;;;20.80;61.30;;;;;;4962416;28;20170;-68
2022/06/17 07:29:00;;;;;;;1020.67;935.90;;;20.90;61.00;;;;;;4930953;29;20079;-68
2022/06/17 07:31:28;;;;;;;1021.43;936.60;;;21.00;61.10;;;;;;4931867;29;20499;-67
2022/06/17 07:33:56;;;;;;;996.37;913.60;;;21.10;60.80;;;;;;4961509;28;20047;-67
2022/06/17 07:41:56;;;;;;;989.97;911.07;;;21.50;59.20;;;;;;4951036;28;20059;-67
2022/06/17 07:44:22;;;;;;;1048.70;960.50;;;21.50;59.00;;;;;;4937172;28;20078;-67
2022/06/17 07:46:48;;;;;;;1021.07;933.70;;;21.60;58.70;;;;;;4949204;28;20501;-67
2022/06/17 07:49:14;;;;;;;1010.77;927.93;;;21.60;59.00;;;;;;4955598;28;20042;-67
2022/06/17 07:51:41;;;;;;;994.23;910.43;;;21.70;59.00;;;;;;4948614;29;20374;-67
2022/06/17 07:54:07;;;;;;;1014.30;930.57;;;21.70;59.00;;;;;;4945768;29;20721;-67
2022/06/17 07:56:32;;;;;;;1035.07;947.70;;;21.70;58.50;;;;;;4957169;28;20048;-68
2022/06/17 07:58:58;;;;;;;1031.27;947.83;;;21.70;58.40;;;;;;4955598;28;20131;-68
2022/06/17 08:01:24;;;;;;;992.83;910.97;;;21.80;58.00;;;;;;4938943;28;20098;-67
2022/06/17 08:03:49;;;;;;;1034.83;951.50;;;22.00;58.10;;;;;;4972552;28;20554;-67
2022/06/17 08:06:16;;;;;;;1018.73;932.00;;;22.30;57.60;;;;;;4949670;28;20478;-67
2022/06/17 08:08:43;;;;;;;1012.90;931.77;;;22.70;57.60;;;;;;4960442;28;20038;-68
2022/06/17 08:11:10;;;;;;;984.43;900.73;;;23.00;56.10;;;;;;4974669;28;20056;-68
2022/06/17 08:13:36;;;;;;;1031.93;948.67;;;23.30;56.10;;;;;;4959476;28;20145;-68
2022/06/17 08:16:05;;;;;;;1039.27;953.37;;;23.50;55.50;;;;;;4979668;28;20157;-68
2022/06/17 08:18:32;;;;;;;1010.87;925.73;;;23.60;55.50;;;;;;4973700;28;20038;-68
2022/06/17 08:20:58;;;;;;;1015.40;932.80;;;23.70;56.30;;;;;;4977845;28;20146;-68
2022/06/17 08:23:25;;;;;;;994.70;914.07;;;23.80;54.90;;;;;;4977221;28;20129;-68
2022/06/17 08:25:51;;;;;;;1016.10;932.80;;;23.80;54.40;;;;;;4969474;28;20046;-68
2022/06/17 08:28:18;;;;;;;1039.67;955.27;;;23.80;54.70;;;;;;4976001;28;20046;-68
2022/06/17 08:30:51;;;;;;;995.63;919.20;;;23.80;54.50;;;;;;4985330;28;20046;-68
2022/06/17 08:33:19;;;;;;;964.10;887.40;;;23.80;54.20;;;;;;4983913;28;20034;-68
2022/06/17 08:35:48;;;;;;;1029.53;942.30;;;23.80;54.00;;;;;;4967864;28;20043;-68
2022/06/17 08:38:24;;;;;;;1013.07;928.50;;;23.80;54.30;;;;;;4981535;28;20148;-68
2022/06/17 08:40:52;;;;;;;959.50;885.40;;;23.90;54.30;;;;;;4985037;28;20049;-68
2022/06/17 08:43:24;;;;;;;1005.03;921.70;;;24.00;53.70;;;;;;4999785;28;20133;-68
2022/06/17 08:45:58;;;;;;;1004.30;924.10;;;24.00;54.20;;;;;;4979908;28;20446;-68
2022/06/17 08:48:51;;;;;;;974.22;894.00;;;24.10;54.00;;;;;;4980105;28;20508;-68
2022/06/17 08:51:40;;;;;;;955.73;882.20;;;24.20;52.90;;;;;;4996296;28;20038;-68
2022/06/17 08:54:32;;;;;;;974.33;899.20;;;24.20;52.70;;;;;;4984537;28;20077;-68
2022/06/17 08:57:16;;;;;;;983.83;906.73;;;24.20;51.80;;;;;;4985468;28;20038;-68
2022/06/17 09:00:11;;;;;;;997.30;921.17;;;24.30;51.90;;;;;;4980265;28;20042;-68
2022/06/17 09:02:39;;;;;;;970.10;894.87;;;24.30;52.10;;;;;;4989602;28;20058;-68
2022/06/17 09:05:20;;;;;;;992.40;915.17;;;24.30;52.30;;;;;;4964867;28;20055;-68
2022/06/17 09:08:11;;;;;;;978.43;900.93;;;24.40;52.40;;;;;;4973428;28;20776;-68
2022/06/17 09:11:07;;;;;;;978.30;902.60;;;24.40;51.40;;;;;;4989901;28;20046;-68
2022/06/17 09:13:42;;;;;;;1002.27;923.47;;;24.40;52.30;;;;;;4972995;28;20669;-68
2022/06/17 09:16:17;;;;;;;;;;;24.40;53.00;;;;;;4980820;28;20045;-68
2022/06/17 09:18:48;;;;;;;960.28;887.97;;;24.50;52.60;;;;;;4997543;28;20245;-68
2022/06/17 09:21:34;;;;;;;969.30;894.43;;;24.50;52.60;;;;;;4969709;28;20042;-68
2022/06/17 09:24:07;;;;;;;960.67;887.57;;;24.70;52.80;;;;;;4972714;28;20598;-68
2022/06/17 09:27:04;;;;;;;967.73;893.80;;;25.00;52.00;;;;;;4973622;28;20043;-68
2022/06/17 09:29:49;;;;;;;1009.03;928.80;;;25.20;52.10;;;;;;4967934;28;20050;-68
2022/06/17 09:32:20;;;;;;;;;;;25.30;51.00;;;;;;4976117;28;20046;-68
2022/06/17 09:35:04;;;;;;;952.03;880.50;;;25.30;50.70;;;;;;4995461;28;20251;-68
2022/06/17 09:38:02;;;;;;;978.60;902.93;;;25.40;50.30;;;;;;4970663;28;20043;-68
2022/06/17 09:40:57;;;;;;;963.00;889.43;;;25.30;49.60;;;;;;4948237;28;20211;-68
2022/06/17 09:43:32;;;;;;;969.97;896.95;;;25.40;49.90;;;;;;4961566;28;20057;-68
2022/06/17 09:46:20;;;;;;;951.17;878.27;;;25.60;49.30;;;;;;4981395;28;20117;-68
2022/06/17 09:49:00;;;;;;;977.67;902.40;;;25.70;49.20;;;;;;4971459;28;20042;-68
2022/06/17 09:51:40;;;;;;;969.53;896.70;;;26.00;49.20;;;;;;4971964;28;20128;-69
2022/06/17 09:54:22;;;;;;;1008.77;927.63;;;26.20;48.30;;;;;;4972571;28;20380;-69
2022/06/17 09:57:02;;;;;;;959.07;885.97;;;26.40;46.80;;;;;;4967726;28;20046;-69
2022/06/17 09:59:38;;;;;;;991.40;913.90;;;26.70;48.70;;;;;;4972807;28;20038;-69
2022/06/17 10:02:29;;;;;;;986.80;912.57;;;27.00;47.60;;;;;;4962060;28;20049;-68
2022/06/17 10:04:58;;;;;;;961.43;887.83;;;27.30;46.90;;;;;;4949082;28;20733;-68
2022/06/17 10:07:49;;;;;;;956.23;885.87;;;27.40;46.20;;;;;;4984375;28;20043;-68
2022/06/17 10:10:41;;;;;;;976.13;905.40;;;27.50;45.10;;;;;;4980903;28;20459;-68
2022/06/17 10:13:29;;;;;;;979.40;904.03;;;27.50;46.10;;;;;;4983437;28;20053;-68
2022/06/17 10:19:22;;;;;;;985.10;912.60;;;27.30;45.70;;;;;;4974852;28;20066;-69
2022/06/17 10:22:32;;;;;;;976.03;900.47;;;27.20;45.70;;;;;;4983525;28;20048;-68
2022/06/17 10:25:10;;;;;;;1004.67;927.53;;;27.20;45.10;;;;;;4963776;28;20069;-68
2022/06/17 10:28:20;;;;;;;1007.57;931.33;;;27.10;45.60;;;;;;4978119;28;20046;-68
2022/06/17 10:31:08;;;;;;;979.00;902.33;;;27.10;45.50;;;;;;4953856;28;20046;-68
2022/06/17 10:33:36;;;;;;;934.33;864.40;;;27.10;45.10;;;;;;4968722;28;20070;-68
2022/06/17 10:36:04;;;;;;;998.00;923.33;;;27.10;44.60;;;;;;4983738;28;20097;-69
2022/06/17 10:38:39;;;;;;;989.07;912.60;;;27.20;45.60;;;;;;4982073;28;20566;-69
2022/06/17 10:41:06;;;;;;;973.90;897.27;;;27.30;45.00;;;;;;4972931;28;20372;-69
2022/06/17 10:43:48;;;;;;;989.33;910.83;;;27.40;44.90;;;;;;4962015;28;20046;-69
2022/06/17 10:46:22;;;;;;;992.87;917.10;;;27.60;45.20;;;;;;4956273;28;20552;-68
2022/06/17 10:49:21;;;;;;;985.45;908.65;;;27.80;44.90;;;;;;4972423;28;20586;-68
2022/06/17 10:51:51;;;;;;;942.40;870.93;;;27.80;44.10;;;;;;4992151;28;20216;-68
2022/06/17 10:54:30;;;;;;;969.33;897.87;;;27.90;44.30;;;;;;4962752;28;20047;-68
2022/06/17 10:57:05;;;;;;;933.77;865.43;;;27.90;44.00;;;;;;4966466;28;20039;-69
2022/06/17 10:59:33;;;;;;;979.23;900.73;;;28.00;43.60;;;;;;4984719;28;20115;-68
2022/06/17 11:01:59;;;;;;;946.20;876.63;;;28.20;44.50;;;;;;4981903;28;20042;-69
2022/06/17 11:04:32;;;;;;;1012.13;929.57;;;28.40;43.80;;;;;;4978786;28;20043;-69
2022/06/17 11:07:18;;;;;;;1003.90;924.27;;;28.30;43.50;;;;;;4976214;28;20069;-69
2022/06/17 11:09:51;;;;;;;942.80;873.13;;;28.00;45.20;;;;;;4995385;28;20051;-69
2022/06/17 11:12:24;;;;;;;994.60;919.77;;;27.90;45.00;;;;;;4984962;28;20402;-69
2022/06/17 11:14:55;;;;;;;955.77;886.00;;;28.00;45.10;;;;;;4973573;28;20034;-69
2022/06/17 11:17:43;;;;;;;934.33;865.43;;;28.20;43.40;;;;;;4975619;28;20085;-69
2022/06/17 11:20:15;;;;;;;973.63;901.00;;;28.20;42.40;;;;;;4978869;28;20046;-69
2022/06/17 11:22:48;;;;;;;946.30;876.97;;;28.00;43.40;;;;;;4985094;28;20047;-69
2022/06/17 11:25:33;;;;;;;953.53;883.55;;;27.90;44.20;;;;;;4991667;28;20116;-69
2022/06/17 11:28:07;;;;;;;937.95;869.67;;;27.90;44.70;;;;;;4981049;28;20042;-69
2022/06/17 11:30:34;;;;;;;957.67;887.13;;;28.00;43.70;;;;;;4988085;28;20057;-69
2022/06/17 11:33:01;;;;;;;966.77;893.30;;;28.00;42.80;;;;;;4953862;28;20101;-69
2022/06/17 11:35:36;;;;;;;975.27;901.40;;;27.90;43.50;;;;;;4957810;28;20077;-69
2022/06/17 11:38:04;;;;;;;959.37;887.47;;;27.90;43.00;;;;;;4991170;28;20081;-69
2022/06/17 11:40:33;;;;;;;994.83;919.00;;;27.90;43.70;;;;;;4965796;28;20050;-67
2022/06/17 11:43:06;;;;;;;971.30;895.50;;;28.00;44.50;;;;;;4963746;28;20038;-67
2022/06/17 11:45:36;;;;;;;1015.63;934.23;;;28.20;44.20;;;;;;4983265;28;20452;-67
2022/06/17 11:48:13;;;;;;;963.57;890.17;;;28.40;43.60;;;;;;4993206;28;20047;-67
2022/06/17 11:50:42;;;;;;;923.33;854.53;;;28.60;41.90;;;;;;4996167;28;20052;-67
2022/06/17 11:53:17;;;;;;;992.03;914.17;;;28.80;41.30;;;;;;4976359;28;20539;-67
2022/06/17 11:55:46;;;;;;;914.90;847.47;;;28.90;42.00;;;;;;4981171;28;20097;-67
2022/06/17 11:58:14;;;;;;;957.60;886.03;;;29.10;40.60;;;;;;4974232;28;20086;-67
2022/06/17 12:00:45;;;;;;;923.40;856.77;;;29.10;39.80;;;;;;4998298;28;20093;-67
2022/06/17 12:03:16;;;;;;;997.30;918.87;;;29.20;39.70;;;;;;4990868;28;20506;-67
2022/06/17 12:05:53;;;;;;;1004.10;925.27;;;29.40;40.00;;;;;;4962449;28;20046;-67
2022/06/17 12:08:25;;;;;;;938.40;870.10;;;29.50;39.80;;;;;;4963216;28;20272;-67
2022/06/17 12:10:58;;;;;;;903.93;842.30;;;29.60;39.40;;;;;;4964561;28;20070;-67
2022/06/17 12:13:42;;;;;;;887.47;825.83;;;29.70;39.50;;;;;;4982348;28;20060;-67
2022/06/17 12:16:37;;;;;;;894.40;830.50;;;29.90;38.90;;;;;;4967906;28;20042;-68
2022/06/17 12:19:05;;;;;;;848.40;788.23;;;30.10;39.20;;;;;;4982334;28;20091;-67
2022/06/17 12:21:52;;;;;;;889.03;826.10;;;30.10;38.90;;;;;;4986440;28;20087;-68
2022/06/17 12:24:49;;;;;;;888.23;826.77;;;30.00;37.80;;;;;;4974708;28;20530;-67
2022/06/17 12:27:26;;;;;;;868.70;810.60;;;29.90;38.10;;;;;;4979537;28;20038;-67
2022/06/17 12:30:05;;;;;;;893.43;829.00;;;29.80;38.30;;;;;;4977004;28;20041;-68
2022/06/17 12:33:03;;;;;;;923.80;855.30;;;29.80;39.30;;;;;;4990853;28;20050;-68
2022/06/17 12:35:46;;;;;;;952.17;881.00;;;29.80;38.40;;;;;;4964535;28;20137;-67
2022/06/17 12:38:22;;;;;;;950.20;879.93;;;29.80;38.60;;;;;;4977088;28;20082;-67
2022/06/17 12:40:59;;;;;;;978.53;906.53;;;29.80;38.00;;;;;;4987029;28;20053;-68
2022/06/17 12:43:35;;;;;;;953.20;879.37;;;29.90;39.70;;;;;;5000654;28;20038;-68
2022/06/17 12:46:08;;;;;;;963.10;891.63;;;29.60;40.10;;;;;;4974347;28;20047;-67
2022/06/17 12:48:56;;;;;;;945.27;877.43;;;29.70;39.70;;;;;;4975035;28;20042;-68
2022/06/17 12:54:51;;;;;;;943.90;872.80;;;29.70;40.10;;;;;;4980179;28;20064;-68
2022/06/17 12:57:40;;;;;;;932.37;862.73;;;30.00;40.10;;;;;;4975486;28;20473;-68
2022/06/17 13:00:18;;;;;;;921.07;851.63;;;30.10;39.10;;;;;;4978112;28;20053;-68
2022/06/17 13:03:02;;;;;;;968.23;895.37;;;30.20;39.60;;;;;;4981741;28;20078;-67